createdAt,value
2018-02-16T00:01:35.332Z,7.37
2018-02-16T00:03:12.513Z,7.41
2018-02-16T00:04:50.227Z,7.42
2018-02-16T00:06:27.000Z,7.31
2018-02-16T00:08:03.390Z,7.24
2018-02-16T00:09:40.259Z,7.30
2018-02-16T00:11:16.695Z,7.33
2018-02-16T00:12:54.050Z,7.28
2018-02-16T00:14:30.545Z,7.13
2018-02-16T00:16:13.754Z,7.09
2018-02-16T00:17:57.257Z,7.04
2018-02-16T00:19:35.514Z,6.85
2018-02-16T00:21:14.154Z,6.68
2018-02-16T00:22:55.176Z,6.49
2018-02-16T00:24:31.572Z,6.59
2018-02-16T00:26:07.954Z,6.89
2018-02-16T00:27:44.626Z,7.07
2018-02-16T00:29:21.568Z,7.07
2018-02-16T00:30:58.032Z,6.90
2018-02-16T00:32:34.417Z,6.75
2018-02-16T00:34:10.846Z,6.81
2018-02-16T00:35:49.499Z,6.87
2018-02-16T00:37:25.883Z,6.95
2018-02-16T00:39:02.407Z,7.02
2018-02-16T00:40:39.001Z,6.99
2018-02-16T00:42:16.354Z,6.96
2018-02-16T00:43:52.905Z,6.88
2018-02-16T00:45:29.524Z,6.61
2018-02-16T00:47:05.925Z,6.62
2018-02-16T00:48:43.849Z,6.47
2018-02-16T00:50:20.434Z,6.14
2018-02-16T00:51:57.723Z,5.99
2018-02-16T00:53:34.724Z,6.12
2018-02-16T00:55:12.162Z,6.28
2018-02-16T00:56:48.654Z,6.12
2018-02-16T00:58:26.841Z,6.06
2018-02-16T01:00:04.483Z,6.42
2018-02-16T01:01:44.362Z,6.49
2018-02-16T01:03:24.441Z,6.19
2018-02-16T01:05:04.625Z,5.94
2018-02-16T01:06:41.390Z,5.97
2018-02-16T01:08:18.287Z,5.70
2018-02-16T01:09:55.515Z,5.56
2018-02-16T01:11:31.876Z,5.74
2018-02-16T01:13:08.262Z,5.54
2018-02-16T01:14:45.886Z,5.40
2018-02-16T01:16:23.454Z,5.21
2018-02-16T01:17:59.907Z,5.19
2018-02-16T01:19:36.228Z,5.37
2018-02-16T01:21:12.645Z,5.50
2018-02-16T01:22:49.661Z,5.47
2018-02-16T01:24:26.025Z,5.38
2018-02-16T01:26:02.456Z,5.03
2018-02-16T01:27:40.251Z,4.79
2018-02-16T01:29:17.440Z,4.76
2018-02-16T01:30:54.952Z,4.83
2018-02-16T01:32:31.564Z,4.87
2018-02-16T01:34:08.199Z,5.00
2018-02-16T01:35:44.463Z,5.23
2018-02-16T01:37:20.800Z,5.41
2018-02-16T01:38:58.153Z,5.41
2018-02-16T01:40:34.930Z,5.36
2018-02-16T01:42:11.684Z,5.42
2018-02-16T01:43:48.060Z,5.60
2018-02-16T01:45:26.172Z,5.88
2018-02-16T01:47:03.736Z,6.06
2018-02-16T01:48:40.134Z,6.26
2018-02-16T01:50:16.939Z,6.30
2018-02-16T01:51:53.311Z,6.17
2018-02-16T01:53:29.659Z,6.23
2018-02-16T01:55:06.012Z,6.11
2018-02-16T01:56:42.361Z,6.08
2018-02-16T01:58:18.722Z,6.10
2018-02-16T01:59:55.427Z,5.91
2018-02-16T02:01:32.258Z,5.94
2018-02-16T02:03:09.410Z,6.07
2018-02-16T02:04:45.800Z,5.98
2018-02-16T02:06:23.278Z,6.24
2018-02-16T02:07:59.638Z,6.13
2018-02-16T02:09:36.858Z,5.64
2018-02-16T02:11:13.248Z,5.61
2018-02-16T02:12:50.021Z,5.54
2018-02-16T02:14:26.505Z,5.58
2018-02-16T02:16:03.032Z,5.57
2018-02-16T02:17:39.340Z,5.67
2018-02-16T02:19:17.019Z,5.67
2018-02-16T02:20:53.366Z,5.74
2018-02-16T02:22:29.808Z,5.56
2018-02-16T02:24:06.175Z,5.46
2018-02-16T02:25:42.629Z,5.46
2018-02-16T02:27:18.976Z,5.52
2018-02-16T02:28:55.278Z,5.59
2018-02-16T02:30:33.136Z,5.34
2018-02-16T02:32:10.672Z,5.02
2018-02-16T02:33:46.991Z,4.81
2018-02-16T02:35:23.394Z,4.69
2018-02-16T02:36:59.704Z,4.32
2018-02-16T02:38:37.198Z,3.95
2018-02-16T02:40:13.532Z,3.79
2018-02-16T02:41:51.677Z,3.77
2018-02-16T02:43:28.009Z,3.82
2018-02-16T02:45:05.538Z,4.07
2018-02-16T02:46:42.438Z,4.19
2018-02-16T02:48:18.699Z,4.27
2018-02-16T02:49:55.171Z,4.33
2018-02-16T02:51:31.852Z,4.47
2018-02-16T02:53:08.201Z,4.61
2018-02-16T02:54:45.041Z,4.83
2018-02-16T02:56:21.318Z,5.00
2018-02-16T02:57:57.634Z,5.12
2018-02-16T02:59:34.721Z,5.30
2018-02-16T03:01:11.410Z,5.31
2018-02-16T03:02:48.387Z,5.19
2018-02-16T03:04:25.119Z,4.77
2018-02-16T03:06:01.464Z,4.76
2018-02-16T03:07:37.914Z,4.77
2018-02-16T03:09:14.273Z,4.76
2018-02-16T03:10:51.001Z,4.84
2018-02-16T03:12:27.284Z,4.87
2018-02-16T03:14:04.465Z,5.06
2018-02-16T03:15:41.001Z,5.17
2018-02-16T03:17:17.905Z,5.27
2018-02-16T03:18:54.253Z,5.29
2018-02-16T03:20:30.647Z,5.27
2018-02-16T03:22:07.041Z,5.22
2018-02-16T03:23:44.518Z,5.21
2018-02-16T03:25:21.616Z,5.06
2018-02-16T03:26:58.012Z,5.00
2018-02-16T03:28:34.393Z,5.12
2018-02-16T03:30:11.129Z,5.33
2018-02-16T03:31:48.069Z,5.76
2018-02-16T03:34:57.514Z,5.89
2018-02-16T03:36:34.204Z,5.79
2018-02-16T03:38:11.765Z,5.51
2018-02-16T03:39:52.697Z,5.45
2018-02-16T03:41:29.827Z,5.38
2018-02-16T03:43:08.508Z,5.13
2018-02-16T03:44:46.794Z,5.03
2018-02-16T03:46:23.751Z,4.98
2018-02-16T03:48:00.414Z,5.01
2018-02-16T03:49:37.321Z,4.95
2018-02-16T03:51:13.645Z,4.98
2018-02-16T03:52:51.683Z,5.07
2018-02-16T03:54:28.110Z,5.20
2018-02-16T03:56:05.404Z,5.27
2018-02-16T03:57:41.766Z,5.13
2018-02-16T03:59:18.793Z,4.90
2018-02-16T04:00:55.650Z,4.92
2018-02-16T04:02:32.355Z,4.99
2018-02-16T04:04:09.432Z,5.01
2018-02-16T04:05:46.089Z,5.02
2018-02-16T04:07:22.586Z,5.13
2018-02-16T04:08:58.872Z,5.26
2018-02-16T04:10:35.386Z,5.38
2018-02-16T04:12:11.749Z,5.46
2018-02-16T04:13:48.181Z,5.40
2018-02-16T04:15:26.393Z,5.37
2018-02-16T04:17:02.646Z,5.34
2018-02-16T04:18:38.973Z,5.38
2018-02-16T04:20:15.301Z,5.62
2018-02-16T04:21:52.207Z,5.77
2018-02-16T04:23:28.575Z,5.90
2018-02-16T04:25:04.895Z,5.87
2018-02-16T04:26:41.261Z,5.53
2018-02-16T04:28:17.987Z,5.25
2018-02-16T04:29:55.118Z,5.16
2018-02-16T04:31:31.925Z,4.79
2018-02-16T04:33:09.113Z,4.71
2018-02-16T04:34:45.702Z,4.85
2018-02-16T04:36:22.020Z,4.96
2018-02-16T04:37:59.144Z,5.08
2018-02-16T04:39:35.491Z,5.18
2018-02-16T04:41:12.214Z,5.07
2018-02-16T04:42:49.107Z,4.86
2018-02-16T04:44:26.174Z,4.83
2018-02-16T04:46:02.820Z,4.75
2018-02-16T04:47:39.637Z,4.67
2018-02-16T04:49:15.929Z,4.71
2018-02-16T04:50:52.320Z,4.79
2018-02-16T04:52:28.600Z,4.83
2018-02-16T04:54:05.008Z,4.84
2018-02-16T04:55:41.765Z,4.76
2018-02-16T04:57:18.613Z,4.75
2018-02-16T04:58:55.205Z,4.77
2018-02-16T05:00:32.401Z,4.90
2018-02-16T05:02:09.104Z,5.01
2018-02-16T05:03:45.432Z,4.94
2018-02-16T05:05:22.005Z,4.88
2018-02-16T05:06:59.113Z,5.03
2018-02-16T05:08:35.421Z,5.21
2018-02-16T05:10:11.965Z,5.21
2018-02-16T05:11:49.048Z,5.20
2018-02-16T05:13:25.930Z,5.15
2018-02-16T05:15:03.400Z,4.93
2018-02-16T05:16:40.094Z,5.04
2018-02-16T05:18:16.478Z,4.99
2018-02-16T05:19:53.779Z,4.51
2018-02-16T05:21:30.042Z,4.01
2018-02-16T05:23:06.525Z,4.37
2018-02-16T05:24:43.577Z,4.77
2018-02-16T05:26:20.287Z,4.68
2018-02-16T05:27:56.649Z,4.26
2018-02-16T05:29:33.218Z,3.85
2018-02-16T05:31:09.766Z,3.77
2018-02-16T05:32:47.300Z,3.83
2018-02-16T05:34:23.616Z,4.15
2018-02-16T05:36:00.731Z,4.39
2018-02-16T05:37:37.124Z,4.59
2018-02-16T05:39:13.785Z,4.68
2018-02-16T05:40:50.147Z,4.69
2018-02-16T05:42:26.515Z,4.70
2018-02-16T05:44:02.820Z,4.53
2018-02-16T05:45:40.529Z,4.62
2018-02-16T05:47:16.839Z,4.64
2018-02-16T05:48:54.423Z,4.71
2018-02-16T05:50:30.708Z,5.04
2018-02-16T05:52:07.869Z,5.05
2018-02-16T05:53:44.153Z,4.82
2018-02-16T05:55:21.172Z,4.86
2018-02-16T05:56:57.490Z,4.99
2018-02-16T05:58:34.866Z,5.07
2018-02-16T06:00:11.176Z,4.98
2018-02-16T06:01:47.772Z,4.86
2018-02-16T06:03:24.048Z,4.84
2018-02-16T06:05:00.495Z,4.92
2018-02-16T06:06:36.901Z,5.13
2018-02-16T06:08:14.792Z,4.90
2018-02-16T06:09:51.142Z,4.36
2018-02-16T06:11:28.206Z,4.11
2018-02-16T06:13:05.349Z,3.86
2018-02-16T06:14:41.660Z,3.61
2018-02-16T06:16:19.248Z,3.56
2018-02-16T06:17:57.158Z,3.68
2018-02-16T06:19:34.205Z,3.83
2018-02-16T06:21:10.551Z,3.62
2018-02-16T06:22:47.138Z,3.65
2018-02-16T06:24:23.448Z,3.89
2018-02-16T06:25:59.813Z,4.18
2018-02-16T06:27:36.236Z,4.43
2018-02-16T06:29:12.883Z,4.65
2018-02-16T06:30:49.402Z,4.75
2018-02-16T06:32:25.794Z,4.66
2018-02-16T06:34:02.268Z,4.37
2018-02-16T06:35:38.872Z,4.13
2018-02-16T06:37:16.884Z,3.77
2018-02-16T06:38:54.039Z,3.61
2018-02-16T06:40:30.381Z,3.32
2018-02-16T06:42:07.058Z,3.23
2018-02-16T06:43:43.724Z,3.51
2018-02-16T06:45:21.049Z,3.70
2018-02-16T06:46:58.829Z,3.92
2018-02-16T06:48:36.467Z,4.14
2018-02-16T06:50:19.903Z,4.47
2018-02-16T06:51:56.368Z,4.71
2018-02-16T06:53:32.716Z,4.91
2018-02-16T06:55:10.475Z,5.10
2018-02-16T06:56:46.801Z,5.34
2018-02-16T06:58:23.087Z,5.47
2018-02-16T06:59:59.471Z,5.14
2018-02-16T07:01:36.418Z,4.90
2018-02-16T07:03:13.645Z,4.78
2018-02-16T07:04:50.196Z,4.50
2018-02-16T07:06:26.606Z,4.37
2018-02-16T07:08:04.597Z,4.44
2018-02-16T07:09:40.990Z,4.53
2018-02-16T07:11:17.283Z,4.61
2018-02-16T07:12:53.637Z,4.68
2018-02-16T07:14:30.476Z,4.70
2018-02-16T07:16:11.911Z,4.69
2018-02-16T07:17:48.312Z,4.70
2018-02-16T07:19:24.686Z,4.75
2018-02-16T07:21:02.573Z,4.80
2018-02-16T07:22:39.229Z,4.82
2018-02-16T07:24:15.624Z,4.89
2018-02-16T07:25:51.975Z,4.83
2018-02-16T07:27:28.840Z,4.91
2018-02-16T07:29:05.311Z,4.97
2018-02-16T07:30:42.201Z,4.92
2018-02-16T07:32:19.403Z,4.66
2018-02-16T07:33:57.170Z,4.44
2018-02-16T07:35:33.644Z,4.20
2018-02-16T07:37:11.405Z,3.79
2018-02-16T07:38:47.712Z,3.78
2018-02-16T07:40:25.310Z,3.86
2018-02-16T07:42:01.734Z,3.95
2018-02-16T07:43:38.170Z,4.09
2018-02-16T07:45:16.952Z,4.33
2018-02-16T07:46:54.041Z,4.43
2018-02-16T07:48:31.130Z,4.51
2018-02-16T07:50:07.437Z,4.60
2018-02-16T07:51:43.758Z,4.65
2018-02-16T07:53:20.549Z,4.35
2018-02-16T07:54:56.958Z,4.16
2018-02-16T07:56:33.317Z,3.86
2018-02-16T07:58:10.926Z,3.63
2018-02-16T07:59:48.388Z,3.58
2018-02-16T08:01:25.418Z,3.56
2018-02-16T08:03:01.820Z,3.56
2018-02-16T08:04:38.186Z,3.52
2018-02-16T08:06:14.925Z,3.53
2018-02-16T08:07:51.339Z,3.57
2018-02-16T08:09:28.569Z,3.46
2018-02-16T08:11:05.195Z,3.45
2018-02-16T08:12:42.596Z,3.51
2018-02-16T08:14:18.899Z,3.64
2018-02-16T08:15:55.575Z,3.77
2018-02-16T08:17:31.900Z,3.83
2018-02-16T08:19:08.588Z,3.92
2018-02-16T08:20:45.023Z,4.01
2018-02-16T08:22:21.560Z,4.07
2018-02-16T08:23:57.923Z,4.00
2018-02-16T08:25:35.843Z,3.99
2018-02-16T08:27:13.282Z,4.17
2018-02-16T08:28:49.580Z,4.28
2018-02-16T08:30:27.927Z,4.34
2018-02-16T08:32:05.678Z,4.35
2018-02-16T08:33:42.077Z,4.44
2018-02-16T08:35:18.397Z,4.68
2018-02-16T08:36:55.890Z,4.77
2018-02-16T08:38:32.903Z,4.75
2018-02-16T08:40:09.508Z,4.78
2018-02-16T08:41:46.837Z,4.91
2018-02-16T08:43:23.254Z,5.08
2018-02-16T08:45:01.990Z,5.29
2018-02-16T08:46:38.861Z,5.39
2018-02-16T08:48:16.239Z,5.76
2018-02-16T08:49:52.603Z,6.05
2018-02-16T08:51:29.274Z,5.78
2018-02-16T08:53:05.715Z,5.94
2018-02-16T08:54:42.180Z,6.45
2018-02-16T08:56:18.692Z,6.65
2018-02-16T08:57:55.484Z,6.71
2018-02-16T08:59:32.010Z,7.17
2018-02-16T09:01:08.523Z,7.27
2018-02-16T09:02:45.010Z,6.78
2018-02-16T09:04:22.089Z,6.89
2018-02-16T09:05:58.409Z,6.89
2018-02-16T09:07:34.819Z,6.74
2018-02-16T09:09:11.236Z,6.61
2018-02-16T09:10:48.448Z,6.64
2018-02-16T09:12:24.836Z,6.84
2018-02-16T09:14:01.817Z,6.55
2018-02-16T09:15:38.352Z,6.67
2018-02-16T09:17:15.858Z,7.02
2018-02-16T09:18:53.152Z,7.26
2018-02-16T09:20:29.436Z,7.30
2018-02-16T09:22:06.733Z,7.26
2018-02-16T09:23:43.473Z,6.96
2018-02-16T09:25:20.626Z,7.16
2018-02-16T09:26:57.031Z,7.42
2018-02-16T09:28:33.379Z,7.58
2018-02-16T09:30:10.364Z,7.24
2018-02-16T09:31:48.138Z,7.10
2018-02-16T09:33:24.504Z,6.98
2018-02-16T09:35:00.812Z,7.27
2018-02-16T09:36:39.464Z,7.09
2018-02-16T09:38:16.020Z,7.13
2018-02-16T09:39:54.178Z,7.49
2018-02-16T09:41:30.566Z,7.89
2018-02-16T09:43:07.300Z,8.21
2018-02-16T09:44:44.432Z,7.96
2018-02-16T09:46:21.343Z,7.92
2018-02-16T09:47:58.280Z,7.99
2018-02-16T09:49:35.707Z,8.10
2018-02-16T09:51:12.790Z,8.17
2018-02-16T09:52:50.232Z,7.77
2018-02-16T09:54:26.905Z,7.88
2018-02-16T09:56:03.871Z,8.04
2018-02-16T09:57:41.093Z,7.69
2018-02-16T09:59:18.056Z,7.72
2018-02-16T10:00:54.620Z,7.74
2018-02-16T10:02:31.813Z,7.39
2018-02-16T10:04:09.136Z,7.76
2018-02-16T10:05:45.682Z,8.06
2018-02-16T10:07:22.447Z,8.25
2018-02-16T10:08:59.976Z,8.36
2018-02-16T10:10:36.542Z,8.46
2018-02-16T10:12:13.852Z,8.51
2018-02-16T10:13:50.626Z,8.56
2018-02-16T10:15:31.702Z,8.16
2018-02-16T10:17:09.304Z,8.15
2018-02-16T10:18:45.982Z,8.29
2018-02-16T10:20:22.686Z,8.51
2018-02-16T10:22:00.104Z,8.64
2018-02-16T10:23:37.668Z,8.79
2018-02-16T10:25:13.995Z,8.64
2018-02-16T10:26:50.479Z,8.54
2018-02-16T10:28:28.218Z,8.29
2018-02-16T10:30:05.660Z,8.25
2018-02-16T10:31:42.340Z,8.25
2018-02-16T10:33:18.733Z,8.43
2018-02-16T10:34:55.727Z,8.66
2018-02-16T10:36:32.114Z,8.51
2018-02-16T10:38:08.430Z,8.42
2018-02-16T10:39:44.889Z,8.58
2018-02-16T10:41:21.772Z,8.52
2018-02-16T10:42:58.274Z,8.66
2018-02-16T10:44:34.609Z,9.05
2018-02-16T10:46:11.718Z,8.87
2018-02-16T10:47:48.597Z,8.63
2018-02-16T10:49:24.945Z,8.58
2018-02-16T10:51:01.392Z,8.52
2018-02-16T10:52:37.787Z,8.60
2018-02-16T10:54:14.514Z,8.96
2018-02-16T10:55:50.907Z,8.84
2018-02-16T10:57:27.237Z,8.77
2018-02-16T10:59:03.703Z,9.04
2018-02-16T11:00:44.776Z,9.18
2018-02-16T11:02:25.088Z,9.04
2018-02-16T11:04:03.414Z,8.91
2018-02-16T11:05:43.990Z,8.60
2018-02-16T11:07:25.678Z,8.87
2018-02-16T11:09:06.265Z,8.77
2018-02-16T11:10:42.735Z,8.87
2018-02-16T11:12:19.855Z,9.05
2018-02-16T11:13:56.761Z,8.75
2018-02-16T11:15:33.440Z,8.71
2018-02-16T11:17:09.885Z,8.82
2018-02-16T11:18:46.525Z,9.07
2018-02-16T11:20:23.901Z,9.63
2018-02-16T11:22:00.291Z,9.85
2018-02-16T11:25:06.091Z,9.73
2018-02-16T11:26:43.718Z,9.85
2018-02-16T11:28:20.133Z,10.14
2018-02-16T11:29:57.355Z,10.10
2018-02-16T11:31:34.818Z,10.50
2018-02-16T11:33:11.709Z,10.56
2018-02-16T11:34:48.044Z,10.44
2018-02-16T11:36:24.803Z,10.12
2018-02-16T11:38:01.488Z,10.27
2018-02-16T11:39:38.586Z,10.33
2018-02-16T11:41:15.384Z,10.26
2018-02-16T11:42:51.894Z,10.11
2018-02-16T11:44:28.399Z,10.18
2018-02-16T11:46:08.958Z,10.24
2018-02-16T11:47:45.958Z,10.23
2018-02-16T11:49:23.825Z,10.21
2018-02-16T11:51:01.237Z,10.17
2018-02-16T11:52:39.930Z,10.28
2018-02-16T11:54:16.305Z,10.11
2018-02-16T11:55:53.446Z,9.86
2018-02-16T11:57:30.059Z,9.74
2018-02-16T11:59:07.285Z,9.86
2018-02-16T12:00:43.941Z,9.78
2018-02-16T12:02:20.479Z,9.83
2018-02-16T12:03:57.109Z,10.01
2018-02-16T12:05:34.651Z,10.07
2018-02-16T12:07:11.041Z,10.21
2018-02-16T12:08:47.426Z,10.35
2018-02-16T12:10:23.785Z,10.50
2018-02-16T12:12:00.667Z,10.57
2018-02-16T12:13:37.830Z,10.28
2018-02-16T12:15:16.172Z,10.13
2018-02-16T12:16:54.244Z,10.19
2018-02-16T12:18:31.260Z,10.29
2018-02-16T12:20:08.468Z,10.63
2018-02-16T12:21:44.929Z,10.66
2018-02-16T12:23:21.347Z,10.36
2018-02-16T12:24:58.338Z,10.25
2018-02-16T12:26:36.131Z,10.45
2018-02-16T12:28:13.565Z,10.27
2018-02-16T12:29:50.532Z,10.31
2018-02-16T12:31:27.844Z,10.40
2018-02-16T12:33:04.372Z,10.28
2018-02-16T12:34:41.142Z,10.18
2018-02-16T12:36:17.734Z,10.19
2018-02-16T12:37:54.823Z,10.11
2018-02-16T12:39:32.450Z,10.01
2018-02-16T12:41:09.228Z,10.03
2018-02-16T12:42:45.782Z,10.01
2018-02-16T12:44:22.724Z,9.96
2018-02-16T12:45:59.697Z,9.93
2018-02-16T12:47:36.197Z,9.97
2018-02-16T12:49:13.589Z,10.02
2018-02-16T12:50:50.576Z,10.12
2018-02-16T12:52:27.803Z,10.42
2018-02-16T12:54:04.257Z,10.31
2018-02-16T12:55:40.817Z,10.54
2018-02-16T12:57:17.495Z,10.72
2018-02-16T12:58:54.021Z,10.26
2018-02-16T13:00:30.774Z,10.26
2018-02-16T13:02:07.282Z,10.43
2018-02-16T13:03:44.130Z,10.74
2018-02-16T13:05:21.803Z,10.89
2018-02-16T13:06:58.523Z,10.73
2018-02-16T13:08:35.176Z,10.46
2018-02-16T13:10:12.830Z,10.28
2018-02-16T13:11:49.429Z,10.77
2018-02-16T13:13:30.804Z,10.89
2018-02-16T13:15:07.856Z,10.72
2018-02-16T13:16:45.107Z,10.78
2018-02-16T13:20:02.987Z,11.00
2018-02-16T13:23:21.303Z,10.25
2018-02-16T13:24:57.873Z,10.10
2018-02-16T13:26:34.602Z,10.44
2018-02-16T13:28:11.608Z,10.29
2018-02-16T13:29:48.468Z,10.08
2018-02-16T13:31:26.384Z,9.81
2018-02-16T13:33:06.833Z,9.78
2018-02-16T13:34:47.134Z,9.85
2018-02-16T13:36:24.746Z,9.59
2018-02-16T13:38:02.665Z,9.74
2018-02-16T13:39:41.918Z,9.55
2018-02-16T13:41:19.827Z,9.56
2018-02-16T13:42:57.776Z,9.73
2018-02-16T13:44:38.441Z,9.84
2018-02-16T13:46:17.973Z,9.75
2018-02-16T13:47:55.383Z,9.80
2018-02-16T13:49:32.685Z,9.88
2018-02-16T13:51:09.760Z,10.02
2018-02-16T13:52:47.488Z,10.47
2018-02-16T13:54:25.272Z,10.68
2018-02-16T13:56:03.621Z,10.46
2018-02-16T13:57:41.010Z,10.64
2018-02-16T13:59:18.537Z,10.46
2018-02-16T14:00:56.783Z,10.51
2018-02-16T14:02:34.436Z,10.88
2018-02-16T14:04:11.231Z,11.11
2018-02-16T14:05:47.793Z,11.23
2018-02-16T14:07:25.093Z,11.25
2018-02-16T14:09:01.720Z,11.19
2018-02-16T14:10:38.348Z,11.20
2018-02-16T14:12:14.750Z,10.83
2018-02-16T14:13:51.340Z,10.57
2018-02-16T14:15:30.305Z,10.55
2018-02-16T14:17:06.881Z,11.00
2018-02-16T14:18:43.913Z,11.16
2018-02-16T14:20:21.110Z,11.19
2018-02-16T14:21:57.682Z,11.22
2018-02-16T14:23:34.181Z,11.25
2018-02-16T14:25:12.581Z,11.18
2018-02-16T14:26:50.073Z,11.03
2018-02-16T14:28:27.104Z,11.17
2018-02-16T14:30:04.112Z,11.31
2018-02-16T14:31:41.507Z,11.25
2018-02-16T14:33:17.896Z,10.99
2018-02-16T14:34:54.391Z,11.21
2018-02-16T14:36:31.452Z,11.16
2018-02-16T14:38:09.159Z,10.95
2018-02-16T14:39:46.516Z,10.78
2018-02-16T14:41:22.949Z,10.79
2018-02-16T14:42:59.642Z,10.90
2018-02-16T14:44:37.345Z,10.84
2018-02-16T14:46:14.064Z,10.75
2018-02-16T14:47:50.600Z,10.75
2018-02-16T14:49:28.113Z,10.68
2018-02-16T14:51:05.256Z,10.63
2018-02-16T14:52:42.070Z,10.55
2018-02-16T14:54:19.950Z,10.59
2018-02-16T14:55:57.497Z,10.56
2018-02-16T14:57:35.849Z,10.44
2018-02-16T14:59:12.507Z,10.33
2018-02-16T15:00:49.107Z,10.31
2018-02-16T15:02:25.668Z,10.10
2018-02-16T15:04:03.241Z,10.08
2018-02-16T15:05:40.565Z,10.18
2018-02-16T15:07:17.949Z,10.23
2018-02-16T15:08:54.466Z,10.18
2018-02-16T15:10:32.022Z,10.25
2018-02-16T15:12:08.704Z,10.33
2018-02-16T15:13:46.171Z,10.49
2018-02-16T15:15:23.933Z,10.53
2018-02-16T15:17:01.134Z,10.46
2018-02-16T15:18:37.790Z,10.47
2018-02-16T15:20:16.392Z,10.56
2018-02-16T15:21:54.112Z,10.77
2018-02-16T15:23:32.519Z,10.91
2018-02-16T15:25:09.575Z,10.88
2018-02-16T15:26:46.477Z,10.94
2018-02-16T15:28:23.341Z,10.87
2018-02-16T15:30:01.208Z,10.74
2018-02-16T15:31:38.403Z,10.74
2018-02-16T15:33:15.129Z,10.65
2018-02-16T15:34:52.098Z,10.67
2018-02-16T15:36:34.075Z,10.67
2018-02-16T15:38:11.506Z,10.79
2018-02-16T15:39:49.353Z,10.58
2018-02-16T15:41:28.635Z,10.42
2018-02-16T15:43:05.496Z,10.35
2018-02-16T15:44:42.309Z,10.41
2018-02-16T15:46:38.548Z,10.47
2018-02-16T15:48:16.913Z,10.57
2018-02-16T15:49:53.992Z,10.67
2018-02-16T15:51:31.562Z,10.74
2018-02-16T15:53:08.441Z,10.79
2018-02-16T15:54:44.895Z,10.88
2018-02-16T15:56:23.682Z,11.02
2018-02-16T15:58:00.915Z,11.04
2018-02-16T15:59:37.849Z,11.06
2018-02-16T16:01:16.048Z,11.14
2018-02-16T16:02:53.301Z,11.00
2018-02-16T16:04:31.126Z,11.09
2018-02-16T16:06:08.431Z,11.13
2018-02-16T16:07:45.085Z,11.02
2018-02-16T16:09:22.926Z,10.69
2018-02-16T16:10:59.460Z,10.85
2018-02-16T16:12:42.191Z,11.13
2018-02-16T16:14:19.354Z,11.37
2018-02-16T16:16:03.573Z,11.44
2018-02-16T16:17:39.985Z,11.44
2018-02-16T16:19:17.757Z,11.65
2018-02-16T16:20:54.938Z,11.74
2018-02-16T16:22:31.653Z,11.75
2018-02-16T16:24:08.044Z,11.93
2018-02-16T16:25:45.339Z,11.94
2018-02-16T16:27:21.967Z,11.97
2018-02-16T16:28:59.609Z,11.93
2018-02-16T16:30:36.286Z,11.73
2018-02-16T16:32:14.347Z,11.76
2018-02-16T16:33:51.885Z,11.66
2018-02-16T16:35:28.980Z,11.66
2018-02-16T16:37:05.511Z,11.63
2018-02-16T16:38:41.833Z,11.83
2018-02-16T16:40:18.315Z,11.88
2018-02-16T16:41:55.215Z,11.88
2018-02-16T16:43:31.646Z,11.89
2018-02-16T16:45:08.141Z,11.71
2018-02-16T16:46:45.141Z,11.36
2018-02-16T16:48:22.166Z,10.85
2018-02-16T16:49:58.521Z,10.80
2018-02-16T16:51:34.850Z,10.88
2018-02-16T16:53:11.453Z,10.93
2018-02-16T16:54:48.697Z,10.85
2018-02-16T16:56:25.886Z,10.85
2018-02-16T16:58:03.229Z,10.96
2018-02-16T16:59:39.687Z,11.21
2018-02-16T17:01:18.688Z,11.12
2018-02-16T17:02:55.285Z,10.96
2018-02-16T17:04:35.316Z,10.93
2018-02-16T17:06:11.970Z,10.84
2018-02-16T17:07:53.105Z,10.77
2018-02-16T17:09:32.037Z,10.50
2018-02-16T17:11:10.437Z,10.51
2018-02-16T17:12:47.647Z,10.26
2018-02-16T17:14:24.482Z,10.24
2018-02-16T17:16:01.689Z,10.30
2018-02-16T17:19:27.677Z,10.74
2018-02-16T17:21:04.636Z,11.00
2018-02-16T17:22:43.187Z,11.14
2018-02-16T17:24:20.627Z,11.14
2018-02-16T17:25:57.344Z,11.21
2018-02-16T17:27:34.128Z,11.19
2018-02-16T17:29:11.278Z,10.95
2018-02-16T17:30:47.926Z,10.65
2018-02-16T17:32:27.098Z,10.33
2018-02-16T17:34:04.304Z,10.03
2018-02-16T17:35:40.661Z,9.89
2018-02-16T17:37:22.893Z,9.74
2018-02-16T17:39:01.294Z,9.63
2018-02-16T17:40:38.311Z,9.49
2018-02-16T17:42:14.868Z,9.50
2018-02-16T17:43:51.394Z,9.68
2018-02-16T17:45:29.209Z,9.66
2018-02-16T17:47:06.021Z,9.71
2018-02-16T17:48:43.485Z,9.81
2018-02-16T17:50:20.425Z,9.83
2018-02-16T17:51:56.856Z,9.88
2018-02-16T17:53:33.691Z,9.88
2018-02-16T17:55:10.104Z,9.79
2018-02-16T17:56:46.553Z,9.67
2018-02-16T17:58:22.974Z,9.64
2018-02-16T17:59:59.817Z,9.60
2018-02-16T18:01:37.628Z,9.57
2018-02-16T18:03:18.927Z,9.51
2018-02-16T18:04:55.470Z,9.61
2018-02-16T18:06:32.380Z,9.67
2018-02-16T18:08:09.787Z,9.78
2018-02-16T18:09:47.386Z,9.90
2018-02-16T18:11:24.065Z,9.98
2018-02-16T18:13:01.016Z,10.04
2018-02-16T18:14:37.552Z,10.06
2018-02-16T18:16:14.381Z,10.06
2018-02-16T18:17:50.898Z,10.05
2018-02-16T18:19:27.624Z,10.01
2018-02-16T18:21:04.395Z,9.99
2018-02-16T18:22:41.098Z,9.90
2018-02-16T18:24:18.285Z,9.81
2018-02-16T18:25:55.876Z,9.78
2018-02-16T18:27:33.138Z,9.82
2018-02-16T18:29:12.110Z,9.86
2018-02-16T18:30:48.729Z,9.87
2018-02-16T18:32:32.748Z,9.90
2018-02-16T18:34:09.163Z,9.90
2018-02-16T18:35:46.576Z,9.89
2018-02-16T18:37:23.268Z,9.90
2018-02-16T18:39:00.087Z,9.87
2018-02-16T18:40:37.912Z,9.85
2018-02-16T18:42:15.217Z,9.87
2018-02-16T18:43:51.672Z,9.88
2018-02-16T18:45:30.358Z,9.68
2018-02-16T18:47:07.184Z,9.68
2018-02-16T18:48:44.273Z,9.44
2018-02-16T18:50:20.865Z,9.05
2018-02-16T18:51:57.778Z,8.70
2018-02-16T18:53:34.498Z,8.47
2018-02-16T18:56:46.401Z,7.93
2018-02-16T18:58:23.476Z,7.70
2018-02-16T19:00:00.387Z,7.82
2018-02-16T19:01:39.132Z,8.33
2018-02-16T19:03:18.497Z,8.64
2018-02-16T19:04:56.824Z,8.72
2018-02-16T19:06:33.241Z,8.77
2018-02-16T19:08:10.429Z,8.78
2018-02-16T19:09:47.739Z,8.80
2018-02-16T19:11:24.834Z,8.78
2018-02-16T19:13:01.395Z,8.79
2018-02-16T19:14:38.776Z,8.81
2018-02-16T19:16:15.556Z,8.86
2018-02-16T19:17:52.451Z,9.03
2018-02-16T19:19:29.194Z,9.15
2018-02-16T19:21:05.751Z,9.10
2018-02-16T19:22:42.295Z,9.06
2018-02-16T19:24:19.059Z,8.99
2018-02-16T19:25:55.559Z,8.96
2018-02-16T19:27:32.214Z,8.82
2018-02-16T19:29:09.545Z,8.76
2018-02-16T19:30:47.299Z,8.69
2018-02-16T19:32:23.710Z,8.56
2018-02-16T19:34:00.287Z,8.44
2018-02-16T19:46:54.698Z,8.31
2018-02-16T19:48:31.128Z,8.39
2018-02-16T19:50:07.640Z,8.40
2018-02-16T19:51:45.086Z,8.35
2018-02-16T19:53:21.572Z,8.56
2018-02-16T19:54:58.796Z,8.85
2018-02-16T19:56:35.966Z,8.91
2018-02-16T19:58:13.682Z,8.84
2018-02-16T19:59:50.071Z,8.68
2018-02-16T20:01:27.133Z,8.54
2018-02-16T20:03:04.749Z,8.43
2018-02-16T20:04:41.547Z,8.37
2018-02-16T20:06:18.641Z,8.33
2018-02-16T20:07:55.354Z,8.02
2018-02-16T20:09:32.593Z,7.95
2018-02-16T20:11:09.460Z,7.92
2018-02-16T20:12:45.970Z,7.82
2018-02-16T20:14:22.421Z,7.71
2018-02-16T20:15:59.913Z,7.61
2018-02-16T20:17:36.949Z,7.53
2018-02-16T20:19:13.401Z,7.40
2018-02-16T20:20:49.911Z,7.38
2018-02-16T20:22:27.246Z,7.34
2018-02-16T20:24:04.960Z,7.71
2018-02-16T20:25:43.521Z,7.75
2018-02-16T20:27:19.931Z,7.68
2018-02-16T20:28:56.387Z,7.73
2018-02-16T20:30:33.388Z,7.90
2018-02-16T20:32:09.795Z,8.12
2018-02-16T20:33:47.073Z,8.19
2018-02-16T20:35:25.619Z,8.07
2018-02-16T20:37:02.785Z,7.78
2018-02-16T20:38:42.334Z,7.48
2018-02-16T20:40:18.779Z,7.37
2018-02-16T20:41:55.248Z,6.97
2018-02-16T20:43:32.955Z,6.95
2018-02-16T20:45:09.287Z,7.31
2018-02-16T20:46:47.081Z,7.42
2018-02-16T20:48:23.761Z,7.54
2018-02-16T20:50:02.104Z,7.55
2018-02-16T20:51:38.502Z,7.53
2018-02-16T20:53:15.049Z,7.31
2018-02-16T20:54:51.452Z,7.18
2018-02-16T20:56:28.651Z,7.13
2018-02-16T20:58:05.270Z,7.15
2018-02-16T20:59:42.594Z,7.20
2018-02-16T21:01:20.552Z,7.17
2018-02-16T21:02:59.015Z,7.13
2018-02-16T21:04:35.426Z,7.07
2018-02-16T21:06:11.869Z,7.07
2018-02-16T21:07:48.310Z,7.07
2018-02-16T21:09:26.418Z,7.17
2018-02-16T21:11:06.836Z,7.31
2018-02-16T21:14:22.104Z,7.20
2018-02-16T21:15:59.949Z,7.21
2018-02-16T21:17:38.271Z,7.30
2018-02-16T21:19:17.641Z,7.55
2018-02-16T21:20:54.285Z,7.69
2018-02-16T21:22:33.754Z,7.75
2018-02-16T21:24:10.192Z,7.33
2018-02-16T21:25:46.619Z,7.13
2018-02-16T21:27:24.189Z,7.09
2018-02-16T21:29:01.491Z,7.27
2018-02-16T21:30:38.284Z,7.58
2018-02-16T21:32:14.915Z,7.67
2018-02-16T21:33:58.993Z,7.66
2018-02-16T21:35:38.289Z,7.43
2018-02-16T21:37:15.169Z,7.18
2018-02-16T21:38:51.702Z,6.98
2018-02-16T21:40:29.111Z,6.97
2018-02-16T21:42:05.864Z,6.95
2018-02-16T21:43:42.376Z,6.95
2018-02-16T21:45:20.566Z,6.86